This is the latest recevied weather packets stored in our database for station/object N5ZKK. If no packets are shown the sender has not sent any weather packets the latest 10 day(s).
| Time | Temp. | Humidity | Pressure | Rain* | Wind** | Luminosity | Snow |
|---|---|---|---|---|---|---|---|
| 1776940795 | 20° C | 99% | 1012.2 hPa | 0 mm | - | - | - |
| 1776938995 | 20° C | 99% | 1012.2 hPa | 0 mm | - | - | - |
| 1776937195 | 20° C | 99% | 1011.9 hPa | 0 mm | - | - | - |
| 1776935395 | 20° C | 99% | 1012.3 hPa | 0 mm | - | - | - |
| 1776933595 | 20° C | 99% | 1012.6 hPa | 0 mm | - | - | - |
| 1776931795 | 20° C | 99% | 1012.8 hPa | 0 mm | - | - | - |
| 1776929995 | 20° C | 99% | 1013.2 hPa | 0 mm | - | - | - |
| 1776928195 | 20° C | 98% | 1013.5 hPa | 0 mm | - | - | - |
| 1776926395 | 20.56° C | 97% | 1013.7 hPa | 0 mm | - | - | - |
| 1776924595 | 20.56° C | 94% | 1013.9 hPa | 0 mm | - | - | - |
| 1776922795 | 21.11° C | 95% | 1014 hPa | 0 mm | - | - | - |
| 1776920995 | 21.11° C | 95% | 1014.1 hPa | 0 mm | - | - | - |
| 1776919195 | 20.56° C | 96% | 1014.5 hPa | 0 mm | - | - | - |
| 1776917395 | 19.44° C | 99% | 1014.5 hPa | 0 mm | - | - | - |
| 1776915595 | 19.44° C | 99% | 1014.7 hPa | 0 mm | - | - | - |
| 1776913795 | 20° C | 96% | 1014.4 hPa | 0 mm | - | - | - |
| 1776911995 | 20.56° C | 94% | 1014 hPa | 0 mm | - | - | - |
| 1776910195 | 21.67° C | 91% | 1013.6 hPa | 0 mm | - | - | - |
| 1776908395 | 22.78° C | 86% | 1012.9 hPa | 0 mm | - | - | - |
| 1776906595 | 24.44° C | 80% | 1012.4 hPa | 0 mm | - | - | - |
* Rain latest hour (hover to see other rain measurements)
** Current wind speed in m/s (hover to see current wind gust speed)